createdAt,value
2018-03-15T00:00:49.387Z,93.4
2018-03-15T00:01:50.997Z,93.8
2018-03-15T00:02:52.604Z,93.9
2018-03-15T00:03:54.209Z,93.6
2018-03-15T00:04:55.814Z,93.8
2018-03-15T00:05:57.427Z,93.8
2018-03-15T00:06:59.040Z,93.7
2018-03-15T00:08:00.648Z,93.9
2018-03-15T00:09:02.250Z,94.1
2018-03-15T00:10:03.862Z,94.0
2018-03-15T00:11:05.468Z,93.8
2018-03-15T00:12:07.071Z,93.6
2018-03-15T00:13:08.679Z,93.8
2018-03-15T00:14:10.296Z,93.8
2018-03-15T00:15:11.904Z,93.8
2018-03-15T00:16:13.510Z,93.6
2018-03-15T00:17:15.122Z,93.8
2018-03-15T00:18:16.725Z,94.0
2018-03-15T00:19:18.419Z,93.8
2018-03-15T00:20:20.667Z,94.1
2018-03-15T00:21:22.280Z,93.7
2018-03-15T00:22:23.885Z,93.8
2018-03-15T00:23:25.493Z,93.9
2018-03-15T00:24:27.507Z,93.8
2018-03-15T00:25:29.603Z,93.7
2018-03-15T00:26:31.451Z,94.0
2018-03-15T00:27:33.189Z,94.0
2018-03-15T00:28:34.800Z,93.8
2018-03-15T00:29:37.629Z,93.9
2018-03-15T00:30:39.452Z,93.8
2018-03-15T00:31:41.065Z,93.7
2018-03-15T00:32:43.004Z,93.8
2018-03-15T00:33:44.765Z,94.0
2018-03-15T00:34:46.378Z,94.2
2018-03-15T00:35:48.180Z,94.1
2018-03-15T00:36:49.795Z,93.8
2018-03-15T00:37:51.675Z,93.9
2018-03-15T00:38:53.298Z,93.5
2018-03-15T00:39:55.065Z,93.9
2018-03-15T00:40:56.667Z,93.8
2018-03-15T00:41:58.407Z,94.0
2018-03-15T00:43:00.055Z,94.3
2018-03-15T00:44:01.660Z,94.1
2018-03-15T00:45:03.264Z,94.6
2018-03-15T00:46:04.871Z,93.9
2018-03-15T00:47:06.484Z,94.6
2018-03-15T00:48:08.097Z,94.4
2018-03-15T00:49:09.707Z,94.3
2018-03-15T00:50:11.316Z,94.6
2018-03-15T00:51:12.931Z,94.4
2018-03-15T00:52:14.671Z,94.5
2018-03-15T00:53:16.447Z,94.5
2018-03-15T00:54:18.031Z,94.5
2018-03-15T00:55:19.692Z,94.6
2018-03-15T00:56:21.316Z,94.7
2018-03-15T00:57:23.125Z,94.6
2018-03-15T00:58:24.735Z,94.2
2018-03-15T00:59:26.344Z,94.4
2018-03-15T01:00:27.953Z,94.7
2018-03-15T01:01:29.701Z,94.6
2018-03-15T01:02:31.476Z,94.6
2018-03-15T01:03:33.088Z,94.7
2018-03-15T01:04:34.703Z,94.7
2018-03-15T01:05:36.310Z,94.6
2018-03-15T01:06:37.915Z,94.8
2018-03-15T01:07:39.525Z,94.6
2018-03-15T01:08:41.443Z,94.6
2018-03-15T01:09:43.071Z,94.6
2018-03-15T01:10:45.056Z,94.5
2018-03-15T01:11:46.804Z,94.5
2018-03-15T01:12:48.422Z,94.5
2018-03-15T01:13:50.311Z,94.4
2018-03-15T01:14:52.071Z,94.7
2018-03-15T01:15:54.153Z,94.5
2018-03-15T01:16:55.762Z,94.4
2018-03-15T01:17:57.618Z,94.6
2018-03-15T01:18:59.481Z,94.6
2018-03-15T01:20:01.106Z,94.6
2018-03-15T01:21:02.702Z,94.6
2018-03-15T01:22:04.396Z,94.4
2018-03-15T01:23:06.002Z,94.1
2018-03-15T01:24:07.610Z,94.3
2018-03-15T01:25:09.225Z,94.1
2018-03-15T01:26:10.833Z,94.4
2018-03-15T01:27:12.476Z,93.7
2018-03-15T01:28:14.128Z,93.1
2018-03-15T01:29:15.739Z,94.1
2018-03-15T01:30:17.351Z,94.1
2018-03-15T01:31:18.993Z,93.5
2018-03-15T01:32:20.607Z,93.9
2018-03-15T01:33:22.214Z,93.8
2018-03-15T01:34:23.825Z,93.8
2018-03-15T01:35:25.429Z,93.3
2018-03-15T01:36:27.274Z,93.0
2018-03-15T01:37:29.111Z,93.6
2018-03-15T01:38:30.852Z,93.8
2018-03-15T01:39:32.605Z,93.1
2018-03-15T01:40:34.216Z,93.0
2018-03-15T01:41:35.841Z,93.4
2018-03-15T01:42:37.452Z,92.9
2018-03-15T01:43:39.058Z,93.5
2018-03-15T01:44:40.668Z,93.2
2018-03-15T01:45:42.277Z,93.3
2018-03-15T01:46:43.883Z,93.0
2018-03-15T01:47:45.495Z,93.5
2018-03-15T01:48:47.101Z,93.1
2018-03-15T01:49:48.707Z,93.0
2018-03-15T01:50:50.313Z,92.3
2018-03-15T01:51:51.923Z,93.1
2018-03-15T01:52:53.528Z,93.0
2018-03-15T01:53:55.137Z,92.9
2018-03-15T01:54:56.750Z,92.7
2018-03-15T01:55:58.361Z,92.0
2018-03-15T01:56:59.964Z,92.7
2018-03-15T01:58:01.570Z,92.9
2018-03-15T01:59:03.180Z,93.0
2018-03-15T02:00:04.789Z,93.1
2018-03-15T02:01:06.391Z,92.1
2018-03-15T02:02:07.997Z,92.2
2018-03-15T02:03:09.610Z,92.3
2018-03-15T02:04:11.217Z,92.3
2018-03-15T02:05:12.824Z,92.7
2018-03-15T02:06:14.430Z,92.2
2018-03-15T02:07:16.044Z,91.9
2018-03-15T02:08:17.653Z,91.9
2018-03-15T02:09:19.258Z,92.0
2018-03-15T02:10:20.870Z,92.4
2018-03-15T02:11:22.475Z,92.3
2018-03-15T02:12:24.079Z,92.4
2018-03-15T02:13:25.685Z,92.4
2018-03-15T02:14:27.292Z,92.3
2018-03-15T02:15:28.903Z,92.3
2018-03-15T02:16:30.513Z,92.0
2018-03-15T02:17:32.158Z,92.2
2018-03-15T02:18:33.722Z,92.3
2018-03-15T02:19:35.331Z,92.5
2018-03-15T02:20:36.940Z,92.3
2018-03-15T02:21:38.547Z,91.9
2018-03-15T02:22:40.165Z,92.3
2018-03-15T02:23:41.772Z,92.0
2018-03-15T02:24:43.381Z,92.2
2018-03-15T02:25:44.986Z,92.0
2018-03-15T02:26:46.593Z,92.1
2018-03-15T02:27:48.202Z,91.9
2018-03-15T02:28:49.807Z,91.9
2018-03-15T02:29:51.417Z,92.0
2018-03-15T02:30:53.022Z,91.4
2018-03-15T02:31:54.634Z,91.5
2018-03-15T02:32:56.237Z,91.4
2018-03-15T02:33:57.853Z,91.6
2018-03-15T02:34:59.455Z,91.3
2018-03-15T02:36:01.068Z,91.9
2018-03-15T02:37:02.670Z,91.4
2018-03-15T02:38:04.275Z,91.4
2018-03-15T02:39:05.889Z,91.0
2018-03-15T02:40:07.489Z,91.6
2018-03-15T02:41:09.102Z,91.9
2018-03-15T02:42:10.701Z,91.8
2018-03-15T02:43:12.315Z,92.0
2018-03-15T02:44:13.919Z,91.9
2018-03-15T02:45:15.532Z,91.5
2018-03-15T02:46:17.135Z,91.2
2018-03-15T02:47:18.754Z,91.7
2018-03-15T02:48:20.348Z,91.6
2018-03-15T02:49:21.957Z,91.6
2018-03-15T02:50:23.568Z,91.8
2018-03-15T02:51:25.173Z,91.6
2018-03-15T02:52:26.785Z,92.0
2018-03-15T02:53:28.397Z,92.0
2018-03-15T02:54:30.009Z,92.0
2018-03-15T02:55:31.600Z,91.9
2018-03-15T02:56:33.212Z,92.3
2018-03-15T02:57:34.821Z,91.6
2018-03-15T02:58:36.429Z,91.4
2018-03-15T02:59:38.036Z,91.3
2018-03-15T03:00:39.655Z,91.5
2018-03-15T03:01:41.261Z,91.2
2018-03-15T03:02:42.865Z,91.2
2018-03-15T03:03:44.471Z,91.1
2018-03-15T03:04:46.080Z,91.1
2018-03-15T03:05:47.693Z,91.4
2018-03-15T03:06:49.298Z,90.9
2018-03-15T03:07:51.878Z,91.0
2018-03-15T03:08:53.491Z,90.7
2018-03-15T03:09:55.098Z,91.5
2018-03-15T03:10:56.704Z,91.5
2018-03-15T03:11:58.312Z,91.4
2018-03-15T03:12:59.922Z,91.5
2018-03-15T03:14:01.537Z,91.4
2018-03-15T03:15:03.144Z,91.2
2018-03-15T03:16:04.741Z,91.2
2018-03-15T03:17:06.352Z,91.2
2018-03-15T03:18:07.965Z,91.5
2018-03-15T03:19:09.566Z,91.1
2018-03-15T03:20:11.172Z,91.6
2018-03-15T03:21:12.786Z,91.1
2018-03-15T03:22:14.397Z,90.8
2018-03-15T03:23:15.999Z,90.7
2018-03-15T03:24:17.607Z,91.1
2018-03-15T03:25:19.218Z,91.2
2018-03-15T03:26:20.821Z,91.3
2018-03-15T03:27:22.433Z,91.4
2018-03-15T03:28:24.038Z,91.4
2018-03-15T03:29:25.653Z,90.6
2018-03-15T03:30:27.260Z,91.4
2018-03-15T03:31:28.866Z,91.3
2018-03-15T03:32:30.469Z,91.5
2018-03-15T03:33:32.081Z,90.7
2018-03-15T03:34:33.684Z,90.9
2018-03-15T03:35:35.298Z,90.7
2018-03-15T03:36:36.903Z,90.2
2018-03-15T03:37:38.515Z,90.8
2018-03-15T03:38:40.118Z,89.8
2018-03-15T03:39:41.728Z,90.7
2018-03-15T03:40:43.330Z,89.6
2018-03-15T03:41:44.943Z,90.0
2018-03-15T03:42:46.554Z,90.5
2018-03-15T03:43:48.161Z,89.8
2018-03-15T03:44:49.767Z,89.6
2018-03-15T03:45:51.377Z,89.6
2018-03-15T03:46:52.988Z,89.5
2018-03-15T03:47:54.590Z,89.7
2018-03-15T03:48:56.203Z,90.2
2018-03-15T03:49:57.806Z,89.9
2018-03-15T03:50:59.419Z,89.7
2018-03-15T03:52:01.021Z,89.8
2018-03-15T03:53:02.628Z,89.6
2018-03-15T03:54:04.233Z,89.2
2018-03-15T03:55:05.874Z,88.9
2018-03-15T03:56:07.449Z,89.0
2018-03-15T03:57:09.062Z,88.7
2018-03-15T03:58:10.666Z,89.1
2018-03-15T03:59:12.271Z,89.5
2018-03-15T04:00:13.882Z,89.9
2018-03-15T04:01:15.489Z,89.1
2018-03-15T04:02:17.095Z,89.2
2018-03-15T04:03:18.717Z,89.1
2018-03-15T04:04:20.315Z,89.4
2018-03-15T04:05:21.920Z,89.3
2018-03-15T04:06:23.532Z,88.7
2018-03-15T04:07:25.136Z,89.2
2018-03-15T04:08:26.744Z,88.7
2018-03-15T04:09:28.350Z,88.9
2018-03-15T04:10:29.962Z,89.3
2018-03-15T04:11:31.574Z,88.6
2018-03-15T04:12:33.178Z,88.6
2018-03-15T04:13:34.777Z,88.8
2018-03-15T04:14:36.388Z,88.9
2018-03-15T04:15:37.992Z,88.4
2018-03-15T04:16:39.606Z,89.0
2018-03-15T04:17:41.212Z,89.4
2018-03-15T04:18:42.828Z,89.4
2018-03-15T04:19:44.428Z,88.6
2018-03-15T04:20:46.039Z,88.6
2018-03-15T04:21:48.227Z,88.8
2018-03-15T04:22:49.836Z,88.7
2018-03-15T04:23:51.445Z,89.5
2018-03-15T04:24:53.051Z,89.2
2018-03-15T04:25:54.654Z,89.4
2018-03-15T04:26:56.267Z,89.7
2018-03-15T04:27:57.874Z,89.9
2018-03-15T04:28:59.477Z,89.4
2018-03-15T04:30:01.796Z,89.5
2018-03-15T04:31:03.404Z,89.5
2018-03-15T04:32:05.010Z,89.5
2018-03-15T04:33:06.617Z,89.8
2018-03-15T04:34:08.227Z,89.6
2018-03-15T04:35:09.834Z,89.7
2018-03-15T04:36:11.446Z,89.2
2018-03-15T04:37:13.051Z,89.7
2018-03-15T04:38:14.663Z,89.6
2018-03-15T04:39:16.272Z,89.3
2018-03-15T04:40:17.879Z,89.5
2018-03-15T04:41:19.490Z,89.2
2018-03-15T04:42:21.096Z,89.4
2018-03-15T04:43:22.704Z,90.3
2018-03-15T04:44:24.311Z,90.6
2018-03-15T04:45:25.921Z,90.6
2018-03-15T04:46:27.526Z,90.7
2018-03-15T04:47:29.133Z,90.5
2018-03-15T04:48:30.746Z,90.1
2018-03-15T04:49:32.349Z,90.6
2018-03-15T04:50:33.966Z,90.5
2018-03-15T04:51:35.565Z,90.5
2018-03-15T04:52:37.173Z,90.8
2018-03-15T04:53:38.775Z,90.7
2018-03-15T04:54:40.389Z,90.8
2018-03-15T04:55:41.997Z,91.3
2018-03-15T04:56:43.608Z,91.3
2018-03-15T04:57:45.210Z,90.8
2018-03-15T04:58:46.821Z,90.7
2018-03-15T04:59:48.422Z,91.0
2018-03-15T05:00:50.033Z,90.9
2018-03-15T05:01:51.639Z,91.1
2018-03-15T05:02:53.251Z,91.3
2018-03-15T05:03:54.854Z,91.1
2018-03-15T05:04:56.460Z,91.3
2018-03-15T05:05:58.071Z,90.9
2018-03-15T05:06:59.685Z,91.2
2018-03-15T05:08:01.286Z,91.2
2018-03-15T05:09:02.899Z,90.9
2018-03-15T05:10:04.510Z,91.3
2018-03-15T05:11:06.168Z,91.4
2018-03-15T05:12:07.718Z,91.0
2018-03-15T05:13:09.324Z,91.0
2018-03-15T05:14:11.039Z,91.4
2018-03-15T05:15:12.650Z,91.2
2018-03-15T05:16:14.254Z,91.4
2018-03-15T05:17:15.865Z,91.2
2018-03-15T05:18:17.478Z,91.9
2018-03-15T05:19:19.074Z,90.9
2018-03-15T05:20:20.680Z,91.0
2018-03-15T05:21:22.287Z,90.9
2018-03-15T05:22:23.899Z,91.0
2018-03-15T05:23:25.510Z,92.1
2018-03-15T05:24:27.115Z,90.9
2018-03-15T05:25:28.728Z,91.0
2018-03-15T05:26:30.335Z,91.2
2018-03-15T05:27:31.945Z,92.2
2018-03-15T05:28:33.552Z,92.1
2018-03-15T05:29:35.156Z,92.0
2018-03-15T05:30:36.769Z,92.1
2018-03-15T05:31:38.377Z,91.9
2018-03-15T05:32:39.980Z,91.7
2018-03-15T05:33:41.584Z,92.0
2018-03-15T05:34:43.196Z,91.7
2018-03-15T05:35:44.807Z,91.9
2018-03-15T05:36:46.420Z,91.7
2018-03-15T05:37:48.024Z,91.5
2018-03-15T05:38:49.639Z,91.6
2018-03-15T05:39:51.237Z,92.3
2018-03-15T05:40:52.854Z,92.3
2018-03-15T05:41:54.462Z,92.1
2018-03-15T05:42:56.076Z,91.9
2018-03-15T05:43:57.683Z,92.2
2018-03-15T05:44:59.297Z,91.9
2018-03-15T05:46:00.907Z,92.0
2018-03-15T05:47:02.529Z,92.3
2018-03-15T05:48:04.129Z,92.0
2018-03-15T05:49:05.746Z,92.3
2018-03-15T05:50:07.352Z,92.0
2018-03-15T05:51:08.964Z,92.3
2018-03-15T05:52:10.571Z,92.2
2018-03-15T05:53:12.189Z,92.0
2018-03-15T05:54:13.800Z,92.0
2018-03-15T05:55:15.412Z,91.8
2018-03-15T05:56:17.019Z,92.0
2018-03-15T05:57:18.627Z,92.2
2018-03-15T05:58:20.242Z,92.9
2018-03-15T05:59:21.851Z,92.5
2018-03-15T06:00:23.466Z,92.6
2018-03-15T06:01:25.071Z,92.1
2018-03-15T06:02:26.684Z,92.0
2018-03-15T06:03:28.293Z,91.9
2018-03-15T06:04:29.906Z,92.3
2018-03-15T06:05:31.515Z,92.0
2018-03-15T06:06:33.130Z,91.5
2018-03-15T06:07:34.786Z,92.3
2018-03-15T06:08:36.354Z,92.1
2018-03-15T06:09:37.966Z,92.8
2018-03-15T06:10:39.574Z,91.8
2018-03-15T06:11:41.185Z,92.0
2018-03-15T06:12:42.794Z,91.6
2018-03-15T06:13:44.420Z,92.3
2018-03-15T06:14:46.029Z,92.1
2018-03-15T06:15:47.645Z,92.3
2018-03-15T06:16:49.256Z,92.2
2018-03-15T06:17:50.866Z,92.2
2018-03-15T06:18:52.478Z,91.7
2018-03-15T06:19:54.097Z,91.7
2018-03-15T06:20:55.714Z,91.6
2018-03-15T06:21:57.323Z,91.5
2018-03-15T06:22:58.937Z,91.8
2018-03-15T06:24:00.553Z,91.8
2018-03-15T06:25:02.163Z,91.9
2018-03-15T06:26:03.780Z,91.6
2018-03-15T06:27:05.388Z,91.9
2018-03-15T06:28:07.007Z,91.1
2018-03-15T06:29:08.620Z,91.1
2018-03-15T06:30:10.232Z,91.0
2018-03-15T06:31:11.846Z,91.2
2018-03-15T06:32:13.996Z,91.1
2018-03-15T06:33:15.019Z,91.0
2018-03-15T06:34:16.629Z,91.2
2018-03-15T06:35:18.245Z,91.3
2018-03-15T06:36:19.862Z,91.2
2018-03-15T06:37:21.472Z,91.3
2018-03-15T06:38:23.084Z,91.2
2018-03-15T06:39:24.694Z,91.3
2018-03-15T06:40:26.311Z,90.6
2018-03-15T06:41:27.923Z,90.8
2018-03-15T06:42:29.537Z,90.3
2018-03-15T06:43:31.156Z,90.4
2018-03-15T06:44:32.763Z,90.7
2018-03-15T06:45:34.378Z,90.3
2018-03-15T06:46:35.987Z,90.5
2018-03-15T06:47:37.602Z,90.5
2018-03-15T06:48:39.210Z,89.6
2018-03-15T06:49:40.823Z,89.6
2018-03-15T06:50:42.442Z,89.6
2018-03-15T06:51:44.051Z,89.8
2018-03-15T06:52:45.671Z,89.2
2018-03-15T06:53:47.280Z,89.1
2018-03-15T06:54:48.898Z,88.7
2018-03-15T06:55:50.510Z,88.9
2018-03-15T06:56:52.126Z,89.7
2018-03-15T06:57:53.739Z,89.4
2018-03-15T06:58:55.356Z,89.1
2018-03-15T06:59:56.965Z,89.0
2018-03-15T07:00:58.579Z,88.7
2018-03-15T07:02:00.188Z,89.4
2018-03-15T07:03:01.808Z,88.7
2018-03-15T07:04:03.416Z,88.8
2018-03-15T07:05:05.034Z,88.2
2018-03-15T07:06:06.645Z,88.5
2018-03-15T07:07:08.262Z,88.3
2018-03-15T07:08:09.874Z,88.0
2018-03-15T07:09:11.486Z,88.6
2018-03-15T07:10:13.099Z,88.1
2018-03-15T07:11:14.718Z,87.6
2018-03-15T07:12:16.335Z,87.8
2018-03-15T07:13:17.944Z,87.1
2018-03-15T07:14:19.562Z,87.1
2018-03-15T07:15:21.173Z,87.4
2018-03-15T07:16:22.807Z,87.3
2018-03-15T07:17:24.418Z,86.8
2018-03-15T07:18:26.038Z,86.4
2018-03-15T07:19:27.651Z,86.6
2018-03-15T07:20:29.270Z,87.0
2018-03-15T07:21:30.881Z,86.8
2018-03-15T07:22:32.498Z,86.6
2018-03-15T07:23:34.116Z,86.8
2018-03-15T07:24:35.729Z,86.2
2018-03-15T07:25:37.354Z,86.0
2018-03-15T07:26:38.965Z,85.2
2018-03-15T07:27:40.584Z,85.8
2018-03-15T07:28:42.195Z,85.3
2018-03-15T07:29:43.814Z,85.2
2018-03-15T07:30:45.465Z,84.8
2018-03-15T07:31:47.087Z,84.6
2018-03-15T07:32:48.850Z,83.1
2018-03-15T07:33:50.441Z,83.6
2018-03-15T07:34:52.052Z,83.1
2018-03-15T07:35:53.673Z,81.8
2018-03-15T07:36:55.291Z,82.4
2018-03-15T07:37:56.909Z,82.0
2018-03-15T07:38:58.657Z,81.7
2018-03-15T07:40:00.275Z,80.9
2018-03-15T07:41:01.899Z,80.7
2018-03-15T07:42:03.513Z,80.1
2018-03-15T07:43:05.134Z,78.8
2018-03-15T07:44:06.750Z,77.5
2018-03-15T07:45:08.373Z,76.6
2018-03-15T07:46:09.995Z,75.7
2018-03-15T07:47:11.612Z,75.3
2018-03-15T07:48:13.231Z,74.9
2018-03-15T07:49:15.756Z,75.0
2018-03-15T07:50:17.356Z,74.8
2018-03-15T07:51:18.978Z,73.6
2018-03-15T07:52:20.593Z,73.4
2018-03-15T07:53:22.214Z,73.0
2018-03-15T07:54:23.842Z,72.6
2018-03-15T07:55:25.460Z,71.2
2018-03-15T07:56:27.077Z,70.7
2018-03-15T07:57:28.699Z,71.3
2018-03-15T07:58:30.317Z,69.6
2018-03-15T07:59:31.938Z,69.6
2018-03-15T08:00:33.557Z,68.8
2018-03-15T08:01:35.179Z,67.5
2018-03-15T08:02:36.800Z,67.5
2018-03-15T08:03:38.417Z,66.4
2018-03-15T08:04:40.036Z,65.6
2018-03-15T08:05:41.656Z,65.7
2018-03-15T08:06:43.272Z,66.6
2018-03-15T08:07:44.888Z,66.0
2018-03-15T08:08:46.514Z,64.5
2018-03-15T08:09:48.139Z,64.9
2018-03-15T08:10:49.756Z,64.2
2018-03-15T08:11:52.162Z,64.3
2018-03-15T08:12:53.789Z,64.0
2018-03-15T08:13:55.414Z,62.7
2018-03-15T08:14:57.033Z,62.6
2018-03-15T08:15:58.777Z,62.8
2018-03-15T08:17:00.388Z,62.1
2018-03-15T08:18:02.013Z,60.9
2018-03-15T08:19:04.296Z,61.9
2018-03-15T08:20:05.912Z,59.9
2018-03-15T08:21:07.539Z,59.0
2018-03-15T08:22:09.156Z,58.6
2018-03-15T08:23:10.783Z,57.7
2018-03-15T08:24:12.415Z,55.9
2018-03-15T08:25:14.025Z,57.7
2018-03-15T08:26:15.643Z,56.6
2018-03-15T08:27:18.084Z,54.8
2018-03-15T08:28:19.698Z,55.0
2018-03-15T08:29:21.322Z,53.1
2018-03-15T08:30:22.941Z,51.7
2018-03-15T08:31:24.566Z,51.4
2018-03-15T08:32:26.182Z,49.5
2018-03-15T08:33:27.811Z,48.8
2018-03-15T08:34:29.431Z,48.1
2018-03-15T08:35:31.055Z,46.7
2018-03-15T08:36:32.676Z,46.2
2018-03-15T08:37:34.297Z,43.5
2018-03-15T08:38:35.925Z,42.9
2018-03-15T08:39:37.601Z,42.2
2018-03-15T08:40:39.202Z,40.9
2018-03-15T08:41:40.791Z,38.9
2018-03-15T08:42:42.418Z,38.1
2018-03-15T08:43:44.041Z,38.1
2018-03-15T08:44:45.669Z,37.0
2018-03-15T08:45:47.291Z,38.6
2018-03-15T08:46:48.918Z,38.1
2018-03-15T08:47:50.549Z,38.2
2018-03-15T08:48:52.168Z,36.9
2018-03-15T08:49:53.795Z,36.2
2018-03-15T08:50:55.422Z,36.2
2018-03-15T08:51:57.047Z,35.2
2018-03-15T08:52:58.671Z,34.5
2018-03-15T08:54:00.296Z,33.3
2018-03-15T08:55:01.925Z,33.4
2018-03-15T08:56:03.550Z,34.8
2018-03-15T08:57:05.205Z,34.6
2018-03-15T08:58:06.803Z,32.9
2018-03-15T08:59:08.434Z,33.4
2018-03-15T09:00:10.060Z,33.1
2018-03-15T09:01:11.683Z,33.1
2018-03-15T09:02:13.318Z,33.3
2018-03-15T09:03:14.940Z,33.8
2018-03-15T09:04:16.579Z,33.3
2018-03-15T09:05:18.192Z,33.8
2018-03-15T09:06:19.822Z,34.5
2018-03-15T09:07:21.451Z,34.8
2018-03-15T09:08:23.071Z,34.3
2018-03-15T09:09:24.724Z,34.2
2018-03-15T09:10:26.325Z,34.3
2018-03-15T09:11:27.957Z,34.2
2018-03-15T09:12:29.586Z,35.1
2018-03-15T09:13:31.216Z,34.0
2018-03-15T09:14:32.845Z,34.0
2018-03-15T09:15:34.471Z,35.5
2018-03-15T09:16:36.097Z,36.1
2018-03-15T09:17:37.730Z,36.1
2018-03-15T09:18:39.352Z,35.6
2018-03-15T09:19:40.980Z,37.2
2018-03-15T09:20:42.612Z,36.0
2018-03-15T09:21:44.302Z,35.5
2018-03-15T09:22:45.867Z,35.4
2018-03-15T09:23:47.495Z,34.4
2018-03-15T09:24:49.847Z,35.2
2018-03-15T09:25:51.472Z,36.3
2018-03-15T09:26:53.103Z,36.0
2018-03-15T09:27:54.735Z,35.3
2018-03-15T09:28:56.357Z,35.0
2018-03-15T09:29:57.989Z,35.1
2018-03-15T09:30:59.613Z,34.6
2018-03-15T09:32:01.243Z,34.0
2018-03-15T09:33:02.877Z,33.9
2018-03-15T09:34:04.503Z,32.9
2018-03-15T09:35:06.135Z,33.3
2018-03-15T09:36:07.766Z,32.9
2018-03-15T09:37:09.395Z,31.5
2018-03-15T09:38:11.020Z,31.9
2018-03-15T09:39:12.653Z,31.7
2018-03-15T09:40:14.280Z,31.1
2018-03-15T09:41:15.915Z,31.3
2018-03-15T09:42:17.547Z,29.8
2018-03-15T09:43:19.176Z,30.0
2018-03-15T09:44:20.802Z,30.3
2018-03-15T09:45:22.434Z,30.2
2018-03-15T09:46:24.065Z,30.2
2018-03-15T09:47:25.693Z,30.0
2018-03-15T09:48:27.328Z,28.2
2018-03-15T09:49:28.965Z,28.7
2018-03-15T09:50:30.599Z,28.8
2018-03-15T09:51:32.226Z,28.5
2018-03-15T09:52:33.859Z,28.6
2018-03-15T09:53:35.490Z,29.2
2018-03-15T09:54:37.128Z,27.2
2018-03-15T09:55:38.757Z,27.8
2018-03-15T09:56:40.396Z,27.0
2018-03-15T09:57:42.028Z,28.0
2018-03-15T09:58:43.661Z,27.8
2018-03-15T09:59:45.294Z,27.7
2018-03-15T10:00:46.927Z,28.4
2018-03-15T10:01:48.555Z,28.6
2018-03-15T10:02:50.192Z,29.0
2018-03-15T10:03:51.826Z,28.8
2018-03-15T10:04:53.456Z,27.3
2018-03-15T10:05:55.096Z,26.2
2018-03-15T10:06:56.723Z,27.6
2018-03-15T10:07:58.357Z,28.1
2018-03-15T10:09:00.022Z,28.0
2018-03-15T10:10:01.626Z,27.3
2018-03-15T10:11:03.260Z,27.7
2018-03-15T10:12:04.889Z,27.4
2018-03-15T10:13:06.521Z,28.2
2018-03-15T10:14:08.160Z,27.9
2018-03-15T10:15:09.791Z,27.4
2018-03-15T10:16:11.420Z,26.9
2018-03-15T10:17:13.880Z,26.6
2018-03-15T10:18:15.519Z,27.6
2018-03-15T10:19:17.153Z,28.1
2018-03-15T10:20:18.782Z,27.6
2018-03-15T10:21:20.417Z,28.3
2018-03-15T10:22:22.048Z,27.9
2018-03-15T10:23:23.683Z,28.9
2018-03-15T10:24:25.332Z,28.9
2018-03-15T10:25:26.945Z,27.3
2018-03-15T10:26:28.583Z,27.6
2018-03-15T10:27:30.256Z,28.8
2018-03-15T10:28:31.844Z,29.2
2018-03-15T10:29:33.488Z,28.4
2018-03-15T10:30:35.122Z,28.0
2018-03-15T10:31:36.758Z,28.1
2018-03-15T10:32:38.392Z,28.1
2018-03-15T10:33:40.021Z,28.3
2018-03-15T10:34:41.698Z,28.2
2018-03-15T10:35:43.291Z,27.5
2018-03-15T10:36:44.927Z,27.3
2018-03-15T10:37:46.561Z,26.4
2018-03-15T10:38:48.195Z,26.9
2018-03-15T10:39:49.828Z,27.0
2018-03-15T10:40:51.462Z,27.1
2018-03-15T10:41:53.652Z,26.7
2018-03-15T10:42:55.284Z,26.6
2018-03-15T10:43:56.911Z,27.3
2018-03-15T10:44:58.551Z,26.9
2018-03-15T10:46:00.177Z,27.0
2018-03-15T10:47:01.814Z,27.0
2018-03-15T10:48:03.484Z,25.9
2018-03-15T10:49:05.085Z,26.2
2018-03-15T10:50:06.724Z,25.4
2018-03-15T10:51:08.352Z,25.1
2018-03-15T10:52:09.988Z,24.9
2018-03-15T10:53:11.618Z,24.0
2018-03-15T10:54:13.290Z,25.3
2018-03-15T10:55:14.888Z,23.9
2018-03-15T10:56:16.523Z,23.4
2018-03-15T10:57:18.156Z,23.6
2018-03-15T10:58:19.793Z,23.5
2018-03-15T10:59:21.423Z,23.4
2018-03-15T11:00:23.061Z,23.4
2018-03-15T11:01:24.694Z,24.1
2018-03-15T11:02:26.331Z,23.9
2018-03-15T11:03:27.961Z,24.3
2018-03-15T11:04:29.590Z,24.9
2018-03-15T11:05:31.226Z,22.7
2018-03-15T11:06:32.856Z,24.0
2018-03-15T11:07:34.496Z,24.4
2018-03-15T11:08:36.141Z,25.7
2018-03-15T11:09:37.775Z,25.0
2018-03-15T11:10:39.410Z,24.4
2018-03-15T11:11:41.043Z,24.2
2018-03-15T11:12:42.679Z,24.4
2018-03-15T11:13:44.308Z,24.6
2018-03-15T11:14:45.939Z,24.5
2018-03-15T11:15:47.579Z,24.6
2018-03-15T11:16:49.215Z,23.7
2018-03-15T11:17:50.844Z,24.6
2018-03-15T11:18:52.476Z,24.9
2018-03-15T11:19:54.111Z,24.6
2018-03-15T11:20:55.744Z,23.4
2018-03-15T11:21:57.375Z,24.9
2018-03-15T11:22:59.008Z,24.7
2018-03-15T11:24:00.704Z,23.6
2018-03-15T11:25:02.279Z,25.8
2018-03-15T11:26:03.906Z,24.6
2018-03-15T11:27:05.544Z,24.8
2018-03-15T11:28:07.174Z,25.6
2018-03-15T11:29:08.807Z,25.9
2018-03-15T11:30:10.439Z,25.2
2018-03-15T11:31:12.076Z,24.1
2018-03-15T11:32:13.702Z,25.0
2018-03-15T11:33:15.335Z,25.1
2018-03-15T11:34:16.964Z,25.7
2018-03-15T11:35:18.597Z,25.5
2018-03-15T11:36:20.228Z,24.6
2018-03-15T11:37:21.858Z,24.9
2018-03-15T11:38:23.497Z,25.1
2018-03-15T11:39:25.769Z,25.0
2018-03-15T11:40:27.400Z,25.6
2018-03-15T11:41:29.024Z,25.3
2018-03-15T11:42:30.660Z,24.2
2018-03-15T11:43:32.292Z,24.2
2018-03-15T11:44:33.971Z,25.8
2018-03-15T11:45:35.557Z,26.0
2018-03-15T11:46:37.188Z,25.3
2018-03-15T11:47:38.819Z,24.7
2018-03-15T11:48:40.446Z,25.5
2018-03-15T11:49:42.078Z,24.9
2018-03-15T11:50:43.763Z,25.1
2018-03-15T11:51:45.343Z,24.7
2018-03-15T11:52:46.970Z,24.8
2018-03-15T11:53:48.598Z,25.6
2018-03-15T11:54:50.228Z,24.6
2018-03-15T11:55:51.860Z,25.3
2018-03-15T11:56:53.485Z,25.9
2018-03-15T11:57:55.117Z,26.1
2018-03-15T11:58:56.749Z,26.9
2018-03-15T11:59:58.383Z,26.7
2018-03-15T12:01:00.005Z,28.2
2018-03-15T12:02:01.638Z,28.2
2018-03-15T12:03:03.268Z,27.8
2018-03-15T12:04:04.901Z,28.5
2018-03-15T12:05:06.533Z,26.7
2018-03-15T12:06:08.161Z,26.4
2018-03-15T12:07:09.793Z,26.4
2018-03-15T12:08:11.427Z,27.0
2018-03-15T12:09:13.074Z,26.3
2018-03-15T12:10:14.668Z,27.4
2018-03-15T12:11:16.344Z,28.0
2018-03-15T12:12:17.961Z,27.5
2018-03-15T12:13:19.592Z,27.0
2018-03-15T12:14:21.219Z,27.2
2018-03-15T12:15:22.848Z,28.8
2018-03-15T12:16:25.246Z,28.2
2018-03-15T12:17:26.875Z,28.7
2018-03-15T12:18:28.499Z,28.5
2018-03-15T12:19:30.129Z,28.6
2018-03-15T12:20:31.751Z,28.4
2018-03-15T12:21:33.386Z,28.6
2018-03-15T12:22:35.008Z,28.9
2018-03-15T12:23:36.637Z,28.7
2018-03-15T12:24:38.264Z,29.2
2018-03-15T12:25:39.892Z,30.2
2018-03-15T12:26:41.519Z,30.4
2018-03-15T12:27:43.145Z,30.3
2018-03-15T12:28:44.776Z,30.2
2018-03-15T12:29:46.399Z,31.0
2018-03-15T12:30:48.029Z,31.7
2018-03-15T12:31:49.648Z,31.5
2018-03-15T12:32:51.281Z,31.9
2018-03-15T12:33:52.902Z,31.6
2018-03-15T12:34:54.528Z,31.3
2018-03-15T12:35:56.160Z,30.0
2018-03-15T12:36:57.788Z,31.4
2018-03-15T12:37:59.407Z,31.6
2018-03-15T12:39:01.027Z,30.1
2018-03-15T12:40:02.658Z,30.1
2018-03-15T12:41:04.283Z,30.1
2018-03-15T12:42:05.906Z,30.5
2018-03-15T12:43:07.538Z,30.0
2018-03-15T12:44:09.157Z,30.5
2018-03-15T12:45:10.786Z,30.6
2018-03-15T12:46:12.407Z,32.1
2018-03-15T12:47:14.936Z,31.0
2018-03-15T12:48:16.566Z,31.1
2018-03-15T12:49:18.197Z,29.9
2018-03-15T12:50:19.817Z,31.1
2018-03-15T12:51:22.214Z,30.9
2018-03-15T12:52:23.833Z,31.3
2018-03-15T12:53:25.455Z,32.0
2018-03-15T12:54:27.084Z,31.6
2018-03-15T12:55:28.710Z,31.5
2018-03-15T12:56:30.869Z,32.1
2018-03-15T12:57:32.518Z,33.1
2018-03-15T12:58:34.117Z,33.0
2018-03-15T12:59:35.738Z,32.9
2018-03-15T13:00:37.366Z,33.5
2018-03-15T13:01:38.989Z,34.6
2018-03-15T13:02:40.614Z,34.7
2018-03-15T13:03:42.237Z,34.3
2018-03-15T13:04:43.866Z,33.1
2018-03-15T13:05:45.496Z,33.6
2018-03-15T13:06:47.111Z,34.1
2018-03-15T13:07:48.732Z,34.1
2018-03-15T13:08:50.363Z,33.2
2018-03-15T13:09:51.982Z,32.7
2018-03-15T13:10:53.613Z,32.8
2018-03-15T13:11:55.277Z,32.6
2018-03-15T13:12:56.861Z,33.2
2018-03-15T13:13:58.481Z,34.2
2018-03-15T13:15:00.106Z,34.6
2018-03-15T13:16:01.731Z,34.9
2018-03-15T13:17:03.356Z,33.7
2018-03-15T13:18:04.978Z,33.2
2018-03-15T13:19:06.605Z,34.2
2018-03-15T13:20:08.221Z,34.9
2018-03-15T13:21:09.846Z,35.7
2018-03-15T13:22:11.468Z,34.3
2018-03-15T13:23:13.126Z,34.0
2018-03-15T13:24:15.302Z,34.2
2018-03-15T13:25:16.923Z,34.2
2018-03-15T13:26:18.551Z,34.3
2018-03-15T13:27:20.172Z,33.6
2018-03-15T13:28:21.806Z,34.5
2018-03-15T13:29:23.420Z,34.8
2018-03-15T13:30:25.051Z,34.9
2018-03-15T13:31:26.662Z,35.8
2018-03-15T13:32:28.287Z,35.8
2018-03-15T13:33:29.910Z,37.0
2018-03-15T13:34:31.534Z,36.7
2018-03-15T13:35:33.152Z,36.8
2018-03-15T13:36:34.779Z,35.6
2018-03-15T13:37:36.399Z,35.6
2018-03-15T13:38:38.028Z,36.0
2018-03-15T13:39:39.646Z,36.4
2018-03-15T13:40:41.275Z,35.7